createdAt,value
2019-05-12T00:02:51.036Z,79.80
2019-05-12T00:06:59.279Z,79.55
2019-05-12T00:11:08.989Z,79.59
2019-05-12T00:15:19.278Z,79.84
2019-05-12T00:19:28.585Z,80.40
2019-05-12T00:23:58.062Z,80.29
2019-05-12T00:28:05.158Z,79.55
2019-05-12T00:32:13.769Z,79.33
2019-05-12T00:36:22.402Z,79.72
2019-05-12T00:40:30.247Z,80.00
2019-05-12T00:44:39.169Z,80.30
2019-05-12T00:48:48.345Z,79.75
2019-05-12T00:52:57.954Z,79.27
2019-05-12T00:57:07.678Z,79.55
2019-05-12T01:01:18.272Z,79.43
2019-05-12T01:05:25.610Z,79.35
2019-05-12T01:09:33.879Z,79.47
2019-05-12T01:13:41.502Z,79.64
2019-05-12T01:17:49.621Z,80.24
2019-05-12T01:21:58.711Z,79.94
2019-05-12T01:26:08.844Z,79.23
2019-05-12T01:30:18.035Z,79.24
2019-05-12T01:34:27.801Z,79.48
2019-05-12T01:38:37.798Z,78.98
2019-05-12T01:42:45.374Z,78.85
2019-05-12T01:46:53.797Z,78.32
2019-05-12T01:51:01.424Z,79.28
2019-05-12T01:55:10.036Z,79.61
2019-05-12T01:59:18.574Z,79.80
2019-05-12T02:03:28.193Z,80.30
2019-05-12T02:07:40.376Z,80.66
2019-05-12T02:11:48.573Z,80.26
2019-05-12T02:15:57.872Z,80.39
2019-05-12T02:20:07.870Z,80.32
2019-05-12T02:24:24.342Z,80.01
2019-05-12T02:28:25.199Z,80.12
2019-05-12T02:32:47.230Z,80.09
2019-05-12T02:36:44.799Z,80.06
2019-05-12T02:40:55.396Z,80.17
2019-05-12T02:45:05.527Z,79.21
2019-05-12T02:49:14.648Z,79.44
2019-05-12T02:53:24.793Z,79.77
2019-05-12T02:57:34.342Z,80.14
2019-05-12T03:01:45.246Z,80.24
2019-05-12T03:05:55.090Z,80.22
2019-05-12T03:10:05.140Z,79.93
2019-05-12T03:14:15.693Z,79.55
2019-05-12T03:18:25.131Z,79.84
2019-05-12T03:22:35.281Z,79.89
2019-05-12T03:26:45.006Z,79.62
2019-05-12T03:30:57.766Z,79.63
2019-05-12T03:35:08.164Z,79.09
2019-05-12T03:39:15.021Z,78.27
2019-05-12T03:43:24.452Z,79.00
2019-05-12T03:47:35.582Z,78.70
2019-05-12T03:51:45.239Z,78.21
2019-05-12T03:55:55.067Z,77.81
2019-05-12T04:00:04.950Z,78.37
2019-05-12T04:04:11.334Z,79.40
2019-05-12T04:08:19.273Z,79.35
2019-05-12T04:12:26.979Z,77.83
2019-05-12T04:16:36.425Z,76.60
2019-05-12T04:20:45.510Z,76.45
2019-05-12T04:24:55.130Z,76.27
2019-05-12T04:29:05.061Z,75.70
2019-05-12T04:33:15.494Z,75.54
2019-05-12T04:37:24.909Z,75.20
2019-05-12T04:41:35.436Z,77.22
2019-05-12T04:45:45.055Z,77.27
2019-05-12T04:49:54.593Z,73.78
2019-05-12T04:54:05.375Z,75.26
2019-05-12T04:58:15.620Z,77.14
2019-05-12T05:02:25.017Z,76.86
2019-05-12T05:06:34.011Z,73.70
2019-05-12T05:10:40.567Z,72.79
2019-05-12T05:14:48.486Z,72.63
2019-05-12T05:18:56.738Z,71.66
2019-05-12T05:23:04.996Z,71.30
2019-05-12T05:27:13.319Z,70.38
2019-05-12T05:31:21.484Z,69.00
2019-05-12T05:35:35.137Z,67.67
2019-05-12T05:39:47.960Z,65.12
2019-05-12T05:43:52.954Z,65.08
2019-05-12T05:47:59.676Z,66.27
2019-05-12T05:52:07.549Z,66.27
2019-05-12T05:56:18.207Z,64.77
2019-05-12T06:00:26.335Z,63.33
2019-05-12T06:04:34.453Z,64.16
2019-05-12T06:08:47.038Z,63.30
2019-05-12T06:12:54.761Z,64.16
2019-05-12T06:17:04.344Z,62.30
2019-05-12T06:21:13.697Z,59.70
2019-05-12T06:25:21.558Z,61.00
2019-05-12T06:29:29.582Z,62.37
2019-05-12T06:33:39.032Z,60.56
2019-05-12T06:37:57.372Z,57.91
2019-05-12T06:42:01.930Z,57.47
2019-05-12T06:46:06.711Z,56.51
2019-05-12T06:50:14.765Z,50.44
2019-05-12T06:54:24.709Z,48.40
2019-05-12T06:58:34.369Z,46.84
2019-05-12T07:02:50.041Z,46.84
2019-05-12T07:06:56.185Z,45.78
2019-05-12T07:11:05.941Z,44.48
2019-05-12T07:15:14.271Z,44.01
2019-05-12T07:19:23.373Z,42.98
2019-05-12T07:23:33.682Z,43.33
2019-05-12T07:27:47.304Z,43.25
2019-05-12T07:31:53.663Z,42.33
2019-05-12T07:36:06.454Z,40.86
2019-05-12T07:40:13.717Z,40.63
2019-05-12T07:44:25.315Z,40.78
2019-05-12T07:48:33.505Z,40.22
2019-05-12T07:52:44.163Z,39.60
2019-05-12T07:56:53.968Z,39.39
2019-05-12T08:01:02.706Z,39.35
2019-05-12T08:05:19.551Z,39.73
2019-05-12T08:09:24.147Z,38.24
2019-05-12T08:13:35.993Z,37.75
2019-05-12T08:17:40.539Z,37.84
2019-05-12T08:21:49.173Z,37.70
2019-05-12T08:25:57.809Z,37.38
2019-05-12T08:30:06.911Z,38.43
2019-05-12T08:34:14.842Z,37.28
2019-05-12T08:38:24.886Z,36.61
2019-05-12T08:42:34.421Z,37.16
2019-05-12T08:46:51.910Z,37.39
2019-05-12T08:50:54.494Z,36.49
2019-05-12T08:55:04.306Z,36.69
2019-05-12T08:59:17.582Z,36.74
2019-05-12T09:03:27.189Z,35.04
2019-05-12T09:07:35.807Z,35.04
2019-05-12T09:11:41.109Z,35.75
2019-05-12T09:15:48.654Z,35.75
2019-05-12T09:20:03.661Z,35.75
2019-05-12T09:24:06.087Z,35.76
2019-05-12T09:28:13.985Z,34.93
2019-05-12T09:32:23.511Z,35.30
2019-05-12T09:36:33.927Z,33.89
2019-05-12T09:40:43.547Z,34.17
2019-05-12T09:44:50.900Z,34.27
2019-05-12T09:48:58.850Z,33.70
2019-05-12T09:53:11.503Z,34.21
2019-05-12T09:57:17.108Z,34.45
2019-05-12T10:01:29.260Z,33.87
2019-05-12T10:05:41.144Z,34.31
2019-05-12T10:09:49.256Z,34.69
2019-05-12T10:14:00.119Z,33.83
2019-05-12T10:18:10.877Z,33.83
2019-05-12T10:22:14.382Z,34.07
2019-05-12T10:26:22.175Z,32.82
2019-05-12T10:30:30.364Z,32.88
2019-05-12T10:34:40.447Z,32.49
2019-05-12T10:38:48.477Z,31.83
2019-05-12T10:42:57.052Z,32.91
2019-05-12T10:47:05.664Z,32.87
2019-05-12T10:51:13.543Z,31.97
2019-05-12T10:55:23.910Z,32.54
2019-05-12T10:59:33.420Z,33.45
2019-05-12T11:03:43.049Z,33.09
2019-05-12T11:07:53.862Z,31.66
2019-05-12T11:12:03.243Z,33.47
2019-05-12T11:16:10.534Z,33.47
2019-05-12T11:20:18.338Z,32.85
2019-05-12T11:24:26.371Z,33.53
2019-05-12T11:28:34.356Z,33.53
2019-05-12T11:32:44.141Z,35.58
2019-05-12T11:36:54.337Z,35.72
2019-05-12T11:41:01.623Z,34.68
2019-05-12T11:45:09.658Z,34.42
2019-05-12T11:49:21.726Z,33.39
2019-05-12T11:53:31.151Z,31.50
2019-05-12T11:57:37.679Z,31.49
2019-05-12T12:01:49.767Z,31.49
2019-05-12T12:06:05.563Z,34.01
2019-05-12T12:10:14.215Z,32.06
2019-05-12T12:14:23.869Z,32.57
2019-05-12T12:18:47.945Z,34.84
2019-05-12T12:22:50.860Z,34.84
2019-05-12T12:26:58.924Z,36.18
2019-05-12T12:31:07.829Z,37.96
2019-05-12T12:35:16.018Z,36.91
2019-05-12T12:39:23.851Z,35.48
2019-05-12T12:43:31.914Z,37.26
2019-05-12T12:47:44.372Z,38.22
2019-05-12T12:51:48.818Z,37.33
2019-05-12T12:55:58.762Z,38.10
2019-05-12T13:00:07.294Z,38.04
2019-05-12T13:04:14.652Z,41.01
2019-05-12T13:08:24.772Z,40.56
2019-05-12T13:12:35.624Z,41.55
2019-05-12T13:16:43.697Z,41.80
2019-05-12T13:20:53.826Z,41.18
2019-05-12T13:25:04.585Z,41.35
2019-05-12T13:29:09.752Z,43.57
2019-05-12T13:33:18.441Z,43.04
2019-05-12T13:37:26.228Z,43.69
2019-05-12T13:41:34.322Z,43.57
2019-05-12T13:45:43.966Z,44.42
2019-05-12T13:49:51.358Z,43.50
2019-05-12T13:53:59.539Z,45.49
2019-05-12T13:58:07.328Z,46.26
2019-05-12T14:02:22.057Z,45.91
2019-05-12T14:06:32.053Z,45.89
2019-05-12T14:10:37.389Z,46.48
2019-05-12T14:14:43.779Z,46.45
2019-05-12T14:18:57.042Z,46.81
2019-05-12T14:23:01.143Z,48.43
2019-05-12T14:27:09.315Z,48.02
2019-05-12T14:31:26.601Z,47.58
2019-05-12T14:35:26.397Z,48.46
2019-05-12T14:39:40.116Z,48.49
2019-05-12T14:43:47.864Z,48.74
2019-05-12T14:48:00.003Z,49.24
2019-05-12T14:52:04.754Z,49.02
2019-05-12T14:56:14.085Z,49.45
2019-05-12T15:00:24.076Z,49.41
2019-05-12T15:04:31.328Z,50.05
2019-05-12T15:08:40.327Z,49.75
2019-05-12T15:12:48.118Z,49.74
2019-05-12T15:16:55.844Z,49.58
2019-05-12T15:21:05.359Z,49.64
2019-05-12T15:25:19.137Z,49.64
2019-05-12T15:29:27.961Z,50.11
2019-05-12T15:33:35.371Z,50.16
2019-05-12T15:37:43.862Z,50.16
2019-05-12T15:41:56.508Z,50.64
2019-05-12T15:46:01.811Z,51.37
2019-05-12T15:50:11.219Z,51.48
2019-05-12T15:54:19.025Z,51.43
2019-05-12T15:58:26.681Z,51.16
2019-05-12T16:02:34.581Z,51.21
2019-05-12T16:06:52.971Z,51.28
2019-05-12T16:10:53.537Z,51.28
2019-05-12T16:15:04.562Z,51.65
2019-05-12T16:19:11.656Z,52.06
2019-05-12T16:23:28.041Z,52.51
2019-05-12T16:27:35.625Z,52.19
2019-05-12T16:31:45.631Z,52.29
2019-05-12T16:35:49.931Z,52.78
2019-05-12T16:39:57.728Z,52.91
2019-05-12T16:44:07.916Z,52.77
2019-05-12T16:48:29.282Z,52.94
2019-05-12T16:52:24.572Z,52.94
2019-05-12T16:56:33.937Z,53.00
2019-05-12T17:00:45.149Z,53.72
2019-05-12T17:04:53.953Z,53.53
2019-05-12T17:09:03.366Z,53.97
2019-05-12T17:13:13.841Z,54.16
2019-05-12T17:17:21.408Z,54.71
2019-05-12T17:21:29.638Z,55.25
2019-05-12T17:25:37.369Z,55.71
2019-05-12T17:29:45.171Z,56.55
2019-05-12T17:33:54.354Z,56.75
2019-05-12T17:38:04.301Z,56.52
2019-05-12T17:42:20.889Z,56.82
2019-05-12T17:46:23.334Z,57.95
2019-05-12T17:50:31.172Z,58.14
2019-05-12T17:54:39.103Z,58.53
2019-05-12T17:58:47.659Z,58.00
2019-05-12T18:03:14.160Z,57.90
2019-05-12T18:07:13.314Z,58.27
2019-05-12T18:11:16.059Z,58.64
2019-05-12T18:15:32.497Z,58.90
2019-05-12T18:19:33.820Z,59.15
2019-05-12T18:23:43.470Z,59.25
2019-05-12T18:27:51.102Z,59.57
2019-05-12T18:31:58.979Z,59.97
2019-05-12T18:36:06.379Z,60.05
2019-05-12T18:40:14.851Z,60.43
2019-05-12T18:44:28.984Z,60.59
2019-05-12T18:48:34.277Z,60.64
2019-05-12T18:52:43.653Z,60.70
2019-05-12T18:56:52.472Z,61.07
2019-05-12T19:01:00.443Z,61.51
2019-05-12T19:05:12.930Z,61.86
2019-05-12T19:09:18.711Z,62.27
2019-05-12T19:13:27.027Z,62.87
2019-05-12T19:17:35.059Z,63.41
2019-05-12T19:21:43.818Z,63.63
2019-05-12T19:25:54.177Z,63.67
2019-05-12T19:30:04.286Z,63.82
2019-05-12T19:34:20.045Z,64.27
2019-05-12T19:38:23.937Z,64.68
2019-05-12T19:42:31.395Z,64.61
2019-05-12T19:46:39.765Z,64.50
2019-05-12T19:50:54.977Z,64.32
2019-05-12T19:54:58.532Z,64.24
2019-05-12T19:59:06.379Z,64.31
2019-05-12T20:03:14.487Z,64.29
2019-05-12T20:07:23.379Z,64.30
2019-05-12T20:11:32.160Z,64.48
2019-05-12T20:15:43.177Z,64.36
2019-05-12T20:19:49.930Z,63.62
2019-05-12T20:23:58.028Z,63.33
2019-05-12T20:28:11.300Z,63.26
2019-05-12T20:32:16.327Z,63.02
2019-05-12T20:36:25.927Z,63.11
2019-05-12T20:40:37.558Z,62.79
2019-05-12T20:44:45.176Z,62.63
2019-05-12T20:48:53.943Z,62.74
2019-05-12T20:53:03.902Z,63.12
2019-05-12T20:57:14.037Z,63.23
2019-05-12T21:01:26.639Z,62.97
2019-05-12T21:05:34.336Z,62.59
2019-05-12T21:09:44.145Z,62.98
2019-05-12T21:13:54.575Z,63.31
2019-05-12T21:18:07.241Z,63.30
2019-05-12T21:22:14.237Z,63.24
2019-05-12T21:26:22.812Z,63.26
2019-05-12T21:30:42.328Z,63.63
2019-05-12T21:34:52.380Z,63.62
2019-05-12T21:38:59.515Z,63.93
2019-05-12T21:43:08.064Z,64.23
2019-05-12T21:47:15.876Z,64.40
2019-05-12T21:51:24.132Z,64.25
2019-05-12T21:55:34.003Z,64.61
2019-05-12T21:59:41.941Z,64.71
2019-05-12T22:03:57.872Z,64.61
2019-05-12T22:08:00.394Z,64.68
2019-05-12T22:12:08.701Z,64.98
2019-05-12T22:16:16.288Z,65.54
2019-05-12T22:20:23.923Z,66.54
2019-05-12T22:24:37.290Z,67.32
2019-05-12T22:28:46.693Z,67.94
2019-05-12T22:32:51.279Z,68.87
2019-05-12T22:36:59.516Z,68.84
2019-05-12T22:41:08.993Z,68.37
2019-05-12T22:45:16.933Z,68.55
2019-05-12T22:49:25.206Z,68.71
2019-05-12T22:53:32.867Z,69.51
2019-05-12T22:57:40.709Z,69.68
2019-05-12T23:01:48.547Z,69.74
2019-05-12T23:06:01.420Z,69.97
2019-05-12T23:10:11.015Z,70.47
2019-05-12T23:14:20.681Z,70.87
2019-05-12T23:18:30.692Z,71.66
2019-05-12T23:22:38.112Z,71.58
2019-05-12T23:26:47.990Z,70.98
2019-05-12T23:30:56.493Z,70.83
2019-05-12T23:35:04.996Z,70.97
2019-05-12T23:39:14.338Z,71.34
2019-05-12T23:43:23.794Z,71.59
2019-05-12T23:47:34.335Z,72.21
2019-05-12T23:51:43.882Z,72.76
2019-05-12T23:55:51.519Z,74.16
2019-05-12T23:59:59.518Z,75.16
